createdAt,value
2022-11-05T00:08:21.926Z,0.70
2022-11-05T00:13:45.380Z,1.25
2022-11-05T00:19:21.548Z,0.63
2022-11-05T00:24:45.988Z,0.85
2022-11-05T00:29:54.608Z,2.22
2022-11-05T00:35:16.670Z,0.80
2022-11-05T00:40:48.842Z,1.27
2022-11-05T00:45:50.812Z,0.95
2022-11-05T00:50:58.028Z,1.58
2022-11-05T00:56:07.192Z,1.88
2022-11-05T01:06:31.539Z,0.90
2022-11-05T01:11:40.694Z,1.90
2022-11-05T01:16:53.835Z,1.63
2022-11-05T01:21:55.669Z,1.27
2022-11-05T01:27:07.247Z,2.25
2022-11-05T01:32:12.687Z,1.52
2022-11-05T01:45:20.296Z,1.30
2022-11-05T02:03:19.962Z,3.25
2022-11-05T02:09:13.914Z,2.38
2022-11-05T02:16:07.038Z,2.15
2022-11-05T02:21:39.877Z,0.95
2022-11-05T02:27:20.092Z,0.90
2022-11-05T02:33:08.973Z,1.60
2022-11-05T03:08:37.244Z,2.78
2022-11-05T03:51:07.817Z,3.30
2022-11-05T08:48:17.630Z,11.18
2022-11-05T09:39:12.467Z,6.30
2022-11-05T09:44:29.381Z,13.25
2022-11-05T10:03:43.083Z,6.97
2022-11-05T10:09:57.462Z,4.80
2022-11-05T10:15:40.994Z,6.85
2022-11-05T10:26:37.975Z,10.30
2022-11-05T10:31:52.414Z,6.40
2022-11-05T10:50:28.339Z,7.40
2022-11-05T10:55:40.669Z,6.30
2022-11-05T11:01:19.614Z,4.15
2022-11-05T11:06:38.061Z,7.28
2022-11-05T11:12:03.260Z,4.00
2022-11-05T11:23:04.556Z,2.78
2022-11-05T11:28:20.882Z,4.70
2022-11-05T11:39:02.439Z,2.03
2022-11-05T11:44:33.372Z,3.53
2022-11-05T11:49:49.916Z,3.67
2022-11-05T11:55:11.013Z,4.95
2022-11-05T12:00:31.878Z,6.07
2022-11-05T12:06:10.815Z,3.47
2022-11-05T12:12:14.077Z,4.30
2022-11-05T12:23:29.172Z,4.88
2022-11-05T12:29:17.836Z,2.85
2022-11-05T12:35:23.268Z,3.35
2022-11-05T12:40:51.987Z,4.03
2022-11-05T12:46:43.018Z,3.55
2022-11-05T12:58:58.068Z,4.05
2022-11-05T13:10:56.002Z,4.35
2022-11-05T13:16:16.551Z,4.60
2022-11-05T13:22:04.970Z,2.13
2022-11-05T13:28:05.780Z,2.53
2022-11-05T14:03:23.949Z,4.65
2022-11-05T14:08:45.588Z,9.75
2022-11-05T14:32:08.660Z,5.20
2022-11-05T14:37:39.806Z,3.17
2022-11-05T14:54:32.398Z,2.30
2022-11-05T15:06:01.694Z,8.88
2022-11-05T15:11:16.347Z,6.07
2022-11-05T15:22:56.512Z,4.13
2022-11-05T15:28:12.465Z,4.70
2022-11-05T15:33:41.421Z,4.70
2022-11-05T15:57:32.993Z,5.88
2022-11-05T16:02:36.805Z,3.88
2022-11-05T16:07:58.194Z,3.88
2022-11-05T16:19:20.518Z,11.55
2022-11-05T16:30:17.012Z,3.97
2022-11-05T16:42:00.993Z,5.40
2022-11-05T16:47:06.867Z,3.20
2022-11-05T16:52:09.782Z,4.45
2022-11-05T16:57:36.011Z,3.85
2022-11-05T17:02:38.086Z,2.95
2022-11-05T17:07:49.093Z,8.10
2022-11-05T17:13:15.283Z,3.75
2022-11-05T17:24:28.303Z,20.25
2022-11-05T17:40:56.007Z,6.13
2022-11-05T17:46:08.937Z,6.13
2022-11-05T17:51:19.330Z,5.65
2022-11-05T18:37:42.019Z,7.22
2022-11-05T18:43:04.193Z,5.93
2022-11-05T19:12:05.938Z,6.72
2022-11-05T19:17:27.985Z,10.85
2022-11-05T19:22:29.780Z,8.82
2022-11-05T19:33:36.907Z,7.70
2022-11-05T19:39:15.049Z,13.10
2022-11-05T19:44:40.471Z,9.07
2022-11-05T19:49:45.392Z,10.65
2022-11-05T19:54:54.891Z,11.38
2022-11-05T19:59:59.822Z,9.32
2022-11-05T20:05:01.938Z,8.02
2022-11-05T20:10:18.962Z,7.18
2022-11-05T20:21:25.649Z,11.38
2022-11-05T20:26:44.859Z,7.55
2022-11-05T20:31:47.195Z,10.27
2022-11-05T20:36:49.395Z,11.63
2022-11-05T20:53:26.368Z,16.25
2022-11-05T20:58:28.762Z,12.63
2022-11-05T21:03:40.226Z,11.80
2022-11-05T21:08:42.898Z,17.70
2022-11-05T21:13:59.564Z,8.60
2022-11-05T21:25:04.705Z,13.18
2022-11-05T21:30:15.321Z,9.50
2022-11-05T21:35:19.330Z,14.55
2022-11-05T21:40:28.517Z,8.65
2022-11-05T21:45:33.032Z,10.63
2022-11-05T21:51:02.972Z,11.63
2022-11-05T21:56:49.596Z,8.88
2022-11-05T22:02:02.897Z,10.73
2022-11-05T22:19:10.913Z,9.98
2022-11-05T22:24:13.047Z,11.25
2022-11-05T22:29:20.058Z,10.80
2022-11-05T22:34:27.679Z,14.10
2022-11-05T22:40:24.136Z,9.70
2022-11-05T22:46:24.385Z,10.10
2022-11-05T22:51:33.501Z,14.02
2022-11-05T23:02:23.299Z,12.10
2022-11-05T23:08:12.563Z,12.32
2022-11-05T23:13:26.208Z,15.43
2022-11-05T23:24:54.958Z,13.10
2022-11-05T23:30:08.773Z,13.57
2022-11-05T23:35:50.714Z,13.43
2022-11-05T23:41:12.090Z,10.55
2022-11-05T23:46:53.478Z,12.23
2022-11-05T23:58:52.202Z,10.05
